createdAt,value
2023-01-27T00:01:11.003Z,75.24
2023-01-27T00:03:41.528Z,75.71
2023-01-27T00:06:08.657Z,75.84
2023-01-27T00:08:35.333Z,76.11
2023-01-27T00:11:02.397Z,76.05
2023-01-27T00:13:29.092Z,76.59
2023-01-27T00:15:55.873Z,76.66
2023-01-27T00:18:22.765Z,77.06
2023-01-27T00:20:51.117Z,77.17
2023-01-27T00:23:20.006Z,76.57
2023-01-27T00:25:46.861Z,76.21
2023-01-27T00:28:13.698Z,76.43
2023-01-27T00:30:40.459Z,76.35
2023-01-27T00:33:08.554Z,76.05
2023-01-27T00:36:04.385Z,76.74
2023-01-27T00:38:32.588Z,76.49
2023-01-27T00:40:59.521Z,76.71
2023-01-27T00:43:36.573Z,77.07
2023-01-27T00:46:03.411Z,77.23
2023-01-27T00:48:30.238Z,77.66
2023-01-27T00:50:57.318Z,77.57
2023-01-27T00:53:24.011Z,77.51
2023-01-27T00:55:50.726Z,77.07
2023-01-27T00:58:31.983Z,76.78
2023-01-27T01:01:00.690Z,77.28
2023-01-27T01:03:28.252Z,77.84
2023-01-27T01:05:55.281Z,77.79
2023-01-27T01:08:22.061Z,77.23
2023-01-27T01:10:48.898Z,77.67
2023-01-27T01:13:15.623Z,77.19
2023-01-27T01:15:44.274Z,77.80
2023-01-27T01:21:49.832Z,77.01
2023-01-27T01:24:16.775Z,77.59
2023-01-27T01:26:43.561Z,76.69
2023-01-27T01:29:10.272Z,76.87
2023-01-27T01:31:37.444Z,76.98
2023-01-27T01:34:04.195Z,77.52
2023-01-27T01:36:31.040Z,77.62
2023-01-27T01:38:57.790Z,77.21
2023-01-27T01:41:24.589Z,77.52
2023-01-27T01:43:52.144Z,77.71
2023-01-27T01:46:19.325Z,77.66
2023-01-27T01:48:51.408Z,77.56
2023-01-27T01:51:32.646Z,77.41
2023-01-27T01:54:17.421Z,77.32
2023-01-27T01:56:49.311Z,77.10
2023-01-27T01:59:29.504Z,77.07
2023-01-27T02:01:58.862Z,77.46
2023-01-27T02:04:30.173Z,77.18
2023-01-27T02:07:09.677Z,78.02
2023-01-27T02:09:38.728Z,78.10
2023-01-27T02:12:05.649Z,77.77
2023-01-27T02:14:32.868Z,77.69
2023-01-27T02:16:59.558Z,77.36
2023-01-27T02:19:37.798Z,77.62
2023-01-27T02:22:05.799Z,77.37
2023-01-27T02:24:37.590Z,77.20
2023-01-27T02:27:05.405Z,76.96
2023-01-27T02:29:32.125Z,77.06
2023-01-27T02:31:59.196Z,76.92
2023-01-27T02:34:27.592Z,76.89
2023-01-27T02:36:55.599Z,76.93
2023-01-27T02:39:23.899Z,76.53
2023-01-27T02:41:54.908Z,76.92
2023-01-27T02:44:21.944Z,77.36
2023-01-27T02:46:49.175Z,77.26
2023-01-27T02:49:17.319Z,77.12
2023-01-27T02:51:44.552Z,77.27
2023-01-27T02:54:11.657Z,76.86
2023-01-27T02:56:38.447Z,77.35
2023-01-27T02:59:05.167Z,76.98
2023-01-27T03:01:31.968Z,76.86
2023-01-27T03:04:09.920Z,76.67
2023-01-27T03:06:36.694Z,77.07
2023-01-27T03:09:04.407Z,76.27
2023-01-27T03:11:31.343Z,76.51
2023-01-27T03:13:58.493Z,75.96
2023-01-27T03:16:25.462Z,76.31
2023-01-27T03:18:52.772Z,76.23
2023-01-27T03:21:19.693Z,77.11
2023-01-27T03:23:46.543Z,77.31
2023-01-27T03:26:13.614Z,77.10
2023-01-27T03:28:40.818Z,77.17
2023-01-27T03:31:10.480Z,76.98
2023-01-27T03:33:37.304Z,76.49
2023-01-27T03:36:04.756Z,77.31
2023-01-27T03:38:32.485Z,76.23
2023-01-27T03:40:59.700Z,76.15
2023-01-27T03:43:26.418Z,75.65
2023-01-27T03:45:53.295Z,75.50
2023-01-27T03:48:20.162Z,76.08
2023-01-27T03:50:47.523Z,76.57
2023-01-27T03:53:14.238Z,76.16
2023-01-27T03:55:41.092Z,75.92
2023-01-27T03:58:22.034Z,76.27
2023-01-27T04:00:53.204Z,75.94
2023-01-27T04:03:20.339Z,75.58
2023-01-27T04:05:47.364Z,75.76
2023-01-27T04:08:14.112Z,75.80
2023-01-27T04:10:40.830Z,76.24
2023-01-27T04:13:14.918Z,76.05
2023-01-27T04:15:42.004Z,75.98
2023-01-27T04:18:08.784Z,76.10
2023-01-27T04:20:35.916Z,76.01
2023-01-27T04:23:02.676Z,75.92
2023-01-27T04:25:29.422Z,75.42
2023-01-27T04:27:57.668Z,75.81
2023-01-27T04:30:24.597Z,75.84
2023-01-27T04:32:51.340Z,76.10
2023-01-27T04:35:20.074Z,75.85
2023-01-27T04:38:12.809Z,75.45
2023-01-27T04:40:40.743Z,75.16
2023-01-27T04:43:07.430Z,74.99
2023-01-27T04:45:34.865Z,75.30
2023-01-27T04:48:01.650Z,75.02
2023-01-27T04:50:28.699Z,75.04
2023-01-27T04:52:55.476Z,74.56
2023-01-27T04:55:22.172Z,73.87
2023-01-27T04:57:49.774Z,74.54
2023-01-27T05:00:17.520Z,74.91
2023-01-27T05:02:44.414Z,74.55
2023-01-27T05:05:12.009Z,74.88
2023-01-27T05:07:39.319Z,74.41
2023-01-27T05:10:07.140Z,75.23
2023-01-27T05:12:33.851Z,74.64
2023-01-27T05:15:00.898Z,74.69
2023-01-27T05:17:32.000Z,74.92
2023-01-27T05:19:59.708Z,74.80
2023-01-27T05:22:26.438Z,75.00
2023-01-27T05:24:53.691Z,75.90
2023-01-27T05:27:21.850Z,75.74
2023-01-27T05:29:49.095Z,75.77
2023-01-27T05:32:15.869Z,75.18
2023-01-27T05:34:42.712Z,75.47
2023-01-27T05:37:09.958Z,75.53
2023-01-27T05:39:36.916Z,75.79
2023-01-27T05:42:03.767Z,75.65
2023-01-27T05:44:30.710Z,76.26
2023-01-27T05:46:57.526Z,76.54
2023-01-27T05:49:24.540Z,76.38
2023-01-27T05:51:53.054Z,75.57
2023-01-27T05:54:19.909Z,75.01
2023-01-27T05:56:46.966Z,75.21
2023-01-27T05:59:14.219Z,75.45
2023-01-27T06:01:41.102Z,75.28
2023-01-27T06:04:09.176Z,75.81
2023-01-27T06:06:36.203Z,75.79
2023-01-27T06:09:04.353Z,75.23
2023-01-27T06:11:31.058Z,75.70
2023-01-27T06:13:58.207Z,75.57
2023-01-27T06:16:25.360Z,75.27
2023-01-27T06:18:52.544Z,75.55
2023-01-27T06:21:20.586Z,75.68
2023-01-27T06:23:47.807Z,75.86
2023-01-27T06:26:18.051Z,75.01
2023-01-27T06:28:45.199Z,75.19
2023-01-27T06:31:19.899Z,75.40
2023-01-27T06:33:46.816Z,75.73
2023-01-27T06:36:15.803Z,75.14
2023-01-27T06:38:43.596Z,74.82
2023-01-27T06:41:10.615Z,75.08
2023-01-27T06:43:37.379Z,75.51
2023-01-27T06:46:06.167Z,75.19
2023-01-27T06:48:33.073Z,75.17
2023-01-27T06:50:59.863Z,75.36
2023-01-27T06:53:27.219Z,75.54
2023-01-27T06:55:58.317Z,75.06
2023-01-27T06:58:25.348Z,75.47
2023-01-27T07:00:52.035Z,75.20
2023-01-27T07:03:21.597Z,74.78
2023-01-27T07:05:49.802Z,74.69
2023-01-27T07:08:16.566Z,74.38
2023-01-27T07:10:43.266Z,73.85
2023-01-27T07:13:11.922Z,74.47
2023-01-27T07:15:38.719Z,74.27
2023-01-27T07:18:16.757Z,74.11
2023-01-27T07:20:44.597Z,74.43
2023-01-27T07:23:11.447Z,74.96
2023-01-27T07:25:38.925Z,74.98
2023-01-27T07:28:09.197Z,74.81
2023-01-27T07:30:35.966Z,74.57
2023-01-27T07:33:16.192Z,74.35
2023-01-27T07:35:43.062Z,74.38
2023-01-27T07:38:09.867Z,73.93
2023-01-27T07:40:38.244Z,74.65
2023-01-27T07:43:05.393Z,73.98
2023-01-27T07:45:32.641Z,73.03
2023-01-27T07:48:14.279Z,74.11
2023-01-27T07:50:41.183Z,73.23
2023-01-27T07:53:07.890Z,71.88
2023-01-27T07:55:34.630Z,73.29
2023-01-27T07:58:07.936Z,72.78
2023-01-27T08:00:35.112Z,72.16
2023-01-27T08:03:02.193Z,70.66
2023-01-27T08:05:33.208Z,70.82
2023-01-27T08:07:59.930Z,71.13
2023-01-27T08:10:26.672Z,70.93
2023-01-27T08:12:53.431Z,70.68
2023-01-27T08:15:22.544Z,70.48
2023-01-27T08:17:58.644Z,71.51
2023-01-27T08:20:29.503Z,71.88
2023-01-27T08:22:56.830Z,71.74
2023-01-27T08:25:23.733Z,72.10
2023-01-27T08:27:54.645Z,71.76
2023-01-27T08:30:21.985Z,71.72
2023-01-27T08:32:48.848Z,71.98
2023-01-27T08:35:15.717Z,71.35
2023-01-27T08:37:42.909Z,70.83
2023-01-27T08:40:13.174Z,71.78
2023-01-27T08:42:41.272Z,71.83
2023-01-27T08:45:10.053Z,70.81
2023-01-27T08:47:37.455Z,71.98
2023-01-27T08:50:08.385Z,72.24
2023-01-27T08:52:36.709Z,72.32
2023-01-27T08:55:04.121Z,72.40
2023-01-27T08:57:31.544Z,70.91
2023-01-27T09:00:00.177Z,72.06
2023-01-27T09:02:28.097Z,71.92
2023-01-27T09:04:55.295Z,72.38
2023-01-27T09:07:22.218Z,72.72
2023-01-27T09:09:49.107Z,72.71
2023-01-27T09:12:15.872Z,72.68
2023-01-27T09:14:43.009Z,72.82
2023-01-27T09:17:09.757Z,73.07
2023-01-27T09:19:36.886Z,72.37
2023-01-27T09:22:04.366Z,72.89
2023-01-27T09:24:31.372Z,72.88
2023-01-27T09:27:00.065Z,72.95
2023-01-27T09:29:27.661Z,72.29
2023-01-27T09:31:54.572Z,72.61
2023-01-27T09:34:21.373Z,70.86
2023-01-27T09:36:52.827Z,71.58
2023-01-27T09:39:46.600Z,71.15
2023-01-27T09:45:30.155Z,71.65
2023-01-27T09:48:19.384Z,71.38
2023-01-27T09:50:52.882Z,71.65
2023-01-27T09:53:38.572Z,70.62
2023-01-27T09:56:14.733Z,70.46
2023-01-27T09:58:47.291Z,70.89
2023-01-27T10:01:38.760Z,71.58
2023-01-27T10:04:34.741Z,71.46
2023-01-27T10:07:11.225Z,71.39
2023-01-27T10:09:55.875Z,69.55
2023-01-27T10:12:25.370Z,70.54
2023-01-27T10:15:31.221Z,71.26
2023-01-27T10:18:10.412Z,71.08
2023-01-27T10:20:45.686Z,70.25
2023-01-27T10:23:34.517Z,71.28
2023-01-27T10:26:18.271Z,71.61
2023-01-27T10:28:50.691Z,70.07
2023-01-27T10:31:25.141Z,71.44
2023-01-27T10:33:53.497Z,71.09
2023-01-27T10:36:30.167Z,71.24
2023-01-27T10:39:28.811Z,70.19
2023-01-27T10:42:04.163Z,68.84
2023-01-27T10:44:40.766Z,66.81
2023-01-27T10:47:28.785Z,69.43
2023-01-27T10:50:01.628Z,69.55
2023-01-27T10:52:36.018Z,70.19
2023-01-27T10:55:42.095Z,70.22
2023-01-27T10:58:23.608Z,70.16
2023-01-27T11:04:03.068Z,70.43
2023-01-27T11:06:32.466Z,70.68
2023-01-27T11:09:10.749Z,68.88
2023-01-27T11:11:37.584Z,69.00
2023-01-27T11:14:29.285Z,69.83
2023-01-27T11:17:22.737Z,70.36
2023-01-27T11:20:08.909Z,67.71
2023-01-27T11:22:44.351Z,69.89
2023-01-27T11:25:53.108Z,69.67
2023-01-27T11:28:37.701Z,69.54
2023-01-27T11:31:14.170Z,69.51
2023-01-27T11:34:19.495Z,66.76
2023-01-27T11:36:47.244Z,67.36
2023-01-27T11:39:15.077Z,70.75
2023-01-27T11:41:46.525Z,71.20
2023-01-27T11:44:31.581Z,70.59
2023-01-27T11:46:58.731Z,70.33
2023-01-27T11:49:34.741Z,70.54
2023-01-27T11:52:09.092Z,69.22
2023-01-27T11:54:46.720Z,68.98
2023-01-27T11:59:07.463Z,70.11
2023-01-27T12:00:43.988Z,70.34
2023-01-27T12:03:20.864Z,71.19
2023-01-27T12:05:59.330Z,71.31
2023-01-27T12:08:41.366Z,71.13
2023-01-27T12:11:30.755Z,71.93
2023-01-27T12:14:01.588Z,71.54
2023-01-27T12:16:45.209Z,70.14
2023-01-27T12:19:32.553Z,69.64
2023-01-27T12:22:07.985Z,69.25
2023-01-27T12:24:35.437Z,69.43
2023-01-27T12:27:03.120Z,70.58
2023-01-27T12:29:43.338Z,71.88
2023-01-27T12:32:43.975Z,70.98
2023-01-27T12:35:22.341Z,70.72
2023-01-27T12:37:51.810Z,72.51
2023-01-27T12:40:20.180Z,73.10
2023-01-27T12:42:50.569Z,71.80
2023-01-27T12:45:23.321Z,70.13
2023-01-27T12:48:17.483Z,70.90
2023-01-27T12:50:54.451Z,71.39
2023-01-27T12:53:28.260Z,71.04
2023-01-27T12:56:19.890Z,70.12
2023-01-27T12:58:52.566Z,69.58
2023-01-27T13:01:36.104Z,70.49
2023-01-27T13:04:20.223Z,69.58
2023-01-27T13:07:02.170Z,69.87
2023-01-27T13:09:36.619Z,70.89
2023-01-27T13:12:23.725Z,71.81
2023-01-27T13:14:52.964Z,71.37
2023-01-27T13:17:46.204Z,70.74
2023-01-27T13:20:31.069Z,70.36
2023-01-27T13:23:09.588Z,70.54
2023-01-27T13:25:45.285Z,69.94
2023-01-27T13:28:16.668Z,70.65
2023-01-27T13:30:44.514Z,69.96
2023-01-27T13:33:37.522Z,69.64
2023-01-27T13:36:08.331Z,68.77
2023-01-27T13:39:16.377Z,68.53
2023-01-27T13:41:48.776Z,69.04
2023-01-27T13:44:35.555Z,69.27
2023-01-27T13:47:04.544Z,69.33
2023-01-27T13:50:30.686Z,68.90
2023-01-27T13:53:00.820Z,70.48
2023-01-27T13:55:49.450Z,69.53
2023-01-27T13:58:38.040Z,68.39
2023-01-27T14:01:26.241Z,70.30
2023-01-27T14:04:02.485Z,70.32
2023-01-27T14:06:32.217Z,71.55
2023-01-27T14:09:17.189Z,71.97
2023-01-27T14:12:20.485Z,72.23
2023-01-27T14:15:08.272Z,71.01
2023-01-27T14:17:49.647Z,73.68
2023-01-27T14:20:41.916Z,74.87
2023-01-27T14:23:33.620Z,74.62
2023-01-27T14:26:13.703Z,74.27
2023-01-27T14:29:04.676Z,74.89
2023-01-27T14:32:04.244Z,73.98
2023-01-27T14:34:52.817Z,72.85
2023-01-27T14:37:28.874Z,72.58
2023-01-27T14:40:24.779Z,71.81
2023-01-27T14:43:04.872Z,69.39
2023-01-27T14:45:45.725Z,69.65
2023-01-27T14:48:32.820Z,70.50
2023-01-27T14:51:03.550Z,70.30
2023-01-27T14:53:54.946Z,69.96
2023-01-27T14:56:45.714Z,68.60
2023-01-27T14:59:37.945Z,71.54
2023-01-27T15:02:37.073Z,72.52
2023-01-27T15:05:03.767Z,72.88
2023-01-27T15:07:36.800Z,72.67
2023-01-27T15:10:23.557Z,71.79
2023-01-27T15:13:26.060Z,70.45
2023-01-27T15:16:03.938Z,71.02
2023-01-27T15:18:39.595Z,71.54
2023-01-27T15:21:37.500Z,71.91
2023-01-27T15:24:15.360Z,72.40
2023-01-27T15:26:43.177Z,72.08
2023-01-27T15:29:16.087Z,71.28
2023-01-27T15:31:44.532Z,72.16
2023-01-27T15:34:22.281Z,72.33
2023-01-27T15:37:02.997Z,71.74
2023-01-27T15:39:40.880Z,72.46
2023-01-27T15:42:11.640Z,71.84
2023-01-27T15:44:39.348Z,71.56
2023-01-27T15:47:23.064Z,72.51
2023-01-27T15:50:10.871Z,72.57
2023-01-27T15:52:43.287Z,72.20
2023-01-27T15:55:26.079Z,72.55
2023-01-27T15:58:05.426Z,72.59
2023-01-27T16:00:39.206Z,72.40
2023-01-27T16:03:27.254Z,73.51
2023-01-27T16:06:22.565Z,72.59
2023-01-27T16:08:56.051Z,71.91
2023-01-27T16:11:25.489Z,71.66
2023-01-27T16:13:52.415Z,71.29
2023-01-27T16:16:19.212Z,72.33
2023-01-27T16:19:06.562Z,70.97
2023-01-27T16:21:45.564Z,72.23
2023-01-27T16:24:16.156Z,72.62
2023-01-27T16:26:50.131Z,73.54
2023-01-27T16:29:33.632Z,73.26
2023-01-27T16:32:06.121Z,73.84
2023-01-27T16:34:41.559Z,73.65
2023-01-27T16:37:22.762Z,73.37
2023-01-27T16:40:14.658Z,73.36
2023-01-27T16:42:58.696Z,73.33
2023-01-27T16:45:32.889Z,73.13
2023-01-27T16:48:03.720Z,73.26
2023-01-27T16:50:44.268Z,73.20
2023-01-27T16:53:19.784Z,73.63
2023-01-27T16:56:03.493Z,73.68
2023-01-27T16:58:46.068Z,73.44
2023-01-27T17:01:22.485Z,73.90
2023-01-27T17:03:49.329Z,74.26
2023-01-27T17:06:16.202Z,74.54
2023-01-27T17:08:44.585Z,75.09
2023-01-27T17:11:16.886Z,74.84
2023-01-27T17:13:49.365Z,74.92
2023-01-27T17:16:25.610Z,74.87
2023-01-27T17:18:53.172Z,74.45
2023-01-27T17:21:31.940Z,73.95
2023-01-27T17:24:05.470Z,73.63
2023-01-27T17:26:32.591Z,74.73
2023-01-27T17:28:59.597Z,74.20
2023-01-27T17:31:26.910Z,74.06
2023-01-27T17:34:00.613Z,75.13
2023-01-27T17:36:28.433Z,75.34
2023-01-27T17:38:55.356Z,75.49
2023-01-27T17:41:28.857Z,75.60
2023-01-27T17:43:58.849Z,76.42
2023-01-27T17:46:30.036Z,75.84
2023-01-27T17:49:04.794Z,75.26
2023-01-27T17:51:39.834Z,76.49
2023-01-27T17:54:28.274Z,76.41
2023-01-27T17:57:12.303Z,76.27
2023-01-27T17:59:40.744Z,76.29
2023-01-27T18:02:32.708Z,76.41
2023-01-27T18:05:02.433Z,76.68
2023-01-27T18:07:32.276Z,76.96
2023-01-27T18:09:59.375Z,77.01
2023-01-27T18:12:36.343Z,76.95
2023-01-27T18:15:33.772Z,77.04
2023-01-27T18:18:02.298Z,76.91
2023-01-27T18:20:31.106Z,77.25
2023-01-27T18:23:05.609Z,77.50
2023-01-27T18:25:32.780Z,77.62
2023-01-27T18:28:01.738Z,77.56
2023-01-27T18:30:28.887Z,77.17
2023-01-27T18:33:00.951Z,77.08
2023-01-27T18:35:30.579Z,77.32
2023-01-27T18:37:58.382Z,77.72
2023-01-27T18:40:26.681Z,77.14
2023-01-27T18:42:56.812Z,77.13
2023-01-27T18:45:24.889Z,77.01
2023-01-27T18:47:52.476Z,77.08
2023-01-27T18:50:25.458Z,77.20
2023-01-27T18:52:52.216Z,77.82
2023-01-27T18:55:37.079Z,77.79
2023-01-27T18:58:11.717Z,78.00
2023-01-27T19:00:46.211Z,77.98
2023-01-27T19:03:16.906Z,78.10
2023-01-27T19:05:43.696Z,77.98
2023-01-27T19:08:14.243Z,77.94
2023-01-27T19:10:41.410Z,78.68
2023-01-27T19:13:09.465Z,78.43
2023-01-27T19:15:51.255Z,78.00
2023-01-27T19:19:00.141Z,78.78
2023-01-27T19:21:27.741Z,78.66
2023-01-27T19:23:54.948Z,78.32
2023-01-27T19:26:22.310Z,78.53
2023-01-27T19:28:51.355Z,78.94
2023-01-27T19:31:18.259Z,78.80
2023-01-27T19:33:45.310Z,78.87
2023-01-27T19:36:34.458Z,79.08
2023-01-27T19:39:08.924Z,78.67
2023-01-27T19:41:35.957Z,78.83
2023-01-27T19:44:03.088Z,78.52
2023-01-27T19:46:29.894Z,78.78
2023-01-27T19:48:56.860Z,78.49
2023-01-27T19:51:23.617Z,78.43
2023-01-27T19:53:50.321Z,78.46
2023-01-27T19:56:21.209Z,78.21
2023-01-27T19:58:50.050Z,78.41
2023-01-27T20:01:17.118Z,78.57
2023-01-27T20:03:44.374Z,78.31
2023-01-27T20:06:14.914Z,78.10
2023-01-27T20:08:42.729Z,78.32
2023-01-27T20:11:38.513Z,78.05
2023-01-27T20:14:17.911Z,78.04
2023-01-27T20:16:44.739Z,77.75
2023-01-27T20:19:15.469Z,77.87
2023-01-27T20:21:43.988Z,77.55
2023-01-27T20:24:18.557Z,77.75
2023-01-27T20:26:46.981Z,77.89
2023-01-27T20:29:13.767Z,77.95
2023-01-27T20:31:40.624Z,78.00
2023-01-27T20:34:07.681Z,78.01
2023-01-27T20:36:34.796Z,78.48
2023-01-27T20:39:04.341Z,78.69
2023-01-27T20:41:31.185Z,78.71
2023-01-27T20:43:59.515Z,78.63
2023-01-27T20:46:27.571Z,79.08
2023-01-27T20:48:54.314Z,79.00
2023-01-27T20:51:21.093Z,79.17
2023-01-27T20:53:47.866Z,79.44
2023-01-27T20:56:37.947Z,79.46
2023-01-27T20:59:04.723Z,79.68
2023-01-27T21:01:33.551Z,79.63
2023-01-27T21:04:00.294Z,79.24
2023-01-27T21:06:27.505Z,79.54
2023-01-27T21:08:54.256Z,79.37
2023-01-27T21:11:21.472Z,79.57
2023-01-27T21:13:49.288Z,79.82
2023-01-27T21:16:16.075Z,79.68
2023-01-27T21:18:43.055Z,79.69
2023-01-27T21:21:36.657Z,79.74
2023-01-27T21:24:03.879Z,79.79
2023-01-27T21:26:31.242Z,79.62
2023-01-27T21:28:58.609Z,79.88
2023-01-27T21:31:25.443Z,79.69
2023-01-27T21:33:55.461Z,79.77
2023-01-27T21:36:26.844Z,79.80
2023-01-27T21:39:10.056Z,79.61
2023-01-27T21:41:38.232Z,79.45
2023-01-27T21:44:05.428Z,79.33
2023-01-27T21:46:33.817Z,79.44
2023-01-27T21:49:00.613Z,79.24
2023-01-27T21:51:27.716Z,79.10
2023-01-27T21:53:54.568Z,79.29
2023-01-27T21:56:21.326Z,79.00
2023-01-27T21:58:48.212Z,78.49
2023-01-27T22:01:15.838Z,79.01
2023-01-27T22:03:43.893Z,78.88
2023-01-27T22:06:10.752Z,78.87
2023-01-27T22:08:37.627Z,79.18
2023-01-27T22:11:43.263Z,79.22
2023-01-27T22:14:10.049Z,78.59
2023-01-27T22:16:36.831Z,79.07
2023-01-27T22:19:45.880Z,78.82
2023-01-27T22:22:12.934Z,78.95
2023-01-27T22:24:39.958Z,79.03
2023-01-27T22:27:10.430Z,78.85
2023-01-27T22:29:37.196Z,78.73
2023-01-27T22:32:04.015Z,78.60
2023-01-27T22:34:31.413Z,78.50
2023-01-27T22:36:59.580Z,78.48
2023-01-27T22:39:29.132Z,78.79
2023-01-27T22:41:56.229Z,78.63
2023-01-27T22:44:23.155Z,77.99
2023-01-27T22:46:50.013Z,78.01
2023-01-27T22:49:16.901Z,78.18
2023-01-27T22:51:43.661Z,77.94
2023-01-27T22:54:11.907Z,78.13
2023-01-27T22:56:38.769Z,78.11
2023-01-27T22:59:05.609Z,77.89
2023-01-27T23:01:32.645Z,77.84
2023-01-27T23:03:59.561Z,77.42
2023-01-27T23:06:26.840Z,77.55
2023-01-27T23:08:55.058Z,77.19
2023-01-27T23:11:21.916Z,77.31
2023-01-27T23:13:49.347Z,77.50
2023-01-27T23:16:16.428Z,77.95
2023-01-27T23:18:43.328Z,77.31
2023-01-27T23:21:10.938Z,77.30
2023-01-27T23:23:37.621Z,77.81
2023-01-27T23:26:08.171Z,78.03
2023-01-27T23:28:35.295Z,77.79
2023-01-27T23:31:02.190Z,77.68
2023-01-27T23:33:33.758Z,77.86
2023-01-27T23:36:00.519Z,77.32
2023-01-27T23:38:33.401Z,77.71
2023-01-27T23:41:05.273Z,77.81
2023-01-27T23:43:32.071Z,77.63
2023-01-27T23:45:58.875Z,77.99
2023-01-27T23:48:25.702Z,77.43
2023-01-27T23:50:52.458Z,77.21
2023-01-27T23:53:20.563Z,77.84
2023-01-27T23:55:57.246Z,77.89
2023-01-27T23:58:24.334Z,77.92
